Time;durP1;ratioP1;P1;durP2;ratioP2;P2;SDS_P1;SDS_P2;PMS_P1;PMS_P2;Temp;Humidity;BMP_temperature;BMP_pressure;BME280_temperature;BME280_humidity;BME280_pressure;Samples;Min_cycle;Max_cycle;Signal;HPM_P1;HPM_P2
2023/07/06 00:00:31;;;;;;;3.30;1.50;;;;;;;;;;4934785;29;20462;-60
2023/07/06 00:02:59;;;;;;;2.23;1.50;;;;;;;;;;4937068;29;20102;-59
2023/07/06 00:05:26;;;;;;;2.10;1.50;;;;;;;;;;4937053;29;20028;-59
2023/07/06 00:07:53;;;;;;;1.73;1.07;;;;;;;;;;4936979;29;20083;-59
2023/07/06 00:10:20;;;;;;;2.70;1.63;;;;;;;;;;4937107;29;20382;-60
2023/07/06 00:12:47;;;;;;;5.13;1.53;;;;;;;;;;4933301;29;20025;-60
2023/07/06 00:15:13;;;;;;;3.30;2.20;;;;;;;;;;4931569;29;21397;-60
2023/07/06 00:17:41;;;;;;;3.13;1.33;;;;;;;;;;4931275;29;20043;-60
2023/07/06 00:20:10;;;;;;;2.57;1.50;;;;;;;;;;4931610;29;20031;-59
2023/07/06 00:22:37;;;;;;;2.63;1.47;;;;;;;;;;4933928;29;20027;-59
2023/07/06 00:25:04;;;;;;;2.47;1.43;;;;;;;;;;4936816;29;20030;-59
2023/07/06 00:27:31;;;;;;;3.43;1.63;;;;;;;;;;4936088;29;20550;-59
2023/07/06 00:30:15;;;;;;;1.80;1.43;;;;;;;;;;4932961;29;20040;-60
2023/07/06 00:32:51;;;;;;;1.37;1.20;;;;;;;;;;4930016;29;20094;-60
2023/07/06 00:35:19;;;;;;;2.47;1.47;;;;;;;;;;4932601;29;20042;-59
2023/07/06 00:37:47;;;;;;;2.03;1.47;;;;;;;;;;4931309;29;20032;-59
2023/07/06 00:40:13;;;;;;;1.67;1.03;;;;;;;;;;4930600;29;20183;-60
2023/07/06 00:42:41;;;;;;;2.37;1.23;;;;;;;;;;4930988;29;20031;-59
2023/07/06 00:45:09;;;;;;;2.07;1.33;;;;;;;;;;4933763;29;20035;-60
2023/07/06 00:47:45;;;;;;;2.43;1.27;;;;;;;;;;4936212;29;20024;-60
2023/07/06 00:50:22;;;;;;;6.53;1.83;;;;;;;;;;4935867;29;20095;-60
2023/07/06 00:52:54;;;;;;;1.77;1.17;;;;;;;;;;4935158;29;20476;-60
2023/07/06 00:55:25;;;;;;;1.77;1.17;;;;;;;;;;4935282;29;20078;-60
2023/07/06 00:57:54;;;;;;;1.90;1.23;;;;;;;;;;4930786;29;20030;-60
2023/07/06 01:00:21;;;;;;;2.30;1.33;;;;;;;;;;4930795;29;20086;-60
2023/07/06 01:02:53;;;;;;;1.70;1.37;;;;;;;;;;4930511;29;20026;-59
2023/07/06 01:05:23;;;;;;;5.23;1.77;;;;;;;;;;4928198;29;20036;-60
2023/07/06 01:07:51;;;;;;;2.60;1.70;;;;;;;;;;4934172;29;20120;-59
2023/07/06 01:10:18;;;;;;;3.10;1.77;;;;;;;;;;4935934;29;20031;-60
2023/07/06 01:12:46;;;;;;;1.97;1.40;;;;;;;;;;4936057;29;20027;-59
2023/07/06 01:15:16;;;;;;;4.17;1.20;;;;;;;;;;4935490;29;20114;-60
2023/07/06 01:17:58;;;;;;;1.00;0.83;;;;;;;;;;4935735;29;20063;-63
2023/07/06 01:20:31;;;;;;;1.93;1.27;;;;;;;;;;4931096;29;20136;-62
2023/07/06 01:23:17;;;;;;;1.90;1.50;;;;;;;;;;4930756;29;20039;-62
2023/07/06 01:25:53;;;;;;;2.10;1.17;;;;;;;;;;4892565;29;20043;-62
2023/07/06 01:28:19;;;;;;;1.97;1.37;;;;;;;;;;4892740;29;20115;-62
2023/07/06 01:30:52;;;;;;;1.53;0.97;;;;;;;;;;4906539;29;20024;-62
2023/07/06 01:33:22;;;;;;;12.67;1.50;;;;;;;;;;4934861;29;20028;-62
2023/07/06 01:35:55;;;;;;;6.87;1.40;;;;;;;;;;4935412;29;20403;-62
2023/07/06 01:38:23;;;;;;;1.33;1.00;;;;;;;;;;4934419;29;20383;-62
2023/07/06 01:40:50;;;;;;;1.13;0.93;;;;;;;;;;4935058;29;20099;-62
2023/07/06 01:43:19;;;;;;;1.57;0.60;;;;;;;;;;4930091;29;20051;-62
2023/07/06 01:45:46;;;;;;;1.93;1.37;;;;;;;;;;4930102;29;20043;-62
2023/07/06 01:48:13;;;;;;;8.23;1.43;;;;;;;;;;4929918;29;20051;-62
2023/07/06 01:50:49;;;;;;;1.50;1.17;;;;;;;;;;4930122;29;20044;-62
2023/07/06 01:53:22;;;;;;;3.73;2.00;;;;;;;;;;4935057;29;20019;-62
2023/07/06 01:55:53;;;;;;;8.73;1.53;;;;;;;;;;4935289;29;20020;-62
2023/07/06 01:58:35;;;;;;;2.40;1.50;;;;;;;;;;4935118;29;20368;-62
2023/07/06 02:01:05;;;;;;;1.37;1.10;;;;;;;;;;4935125;29;20032;-62
2023/07/06 02:03:32;;;;;;;1.17;0.90;;;;;;;;;;4933909;29;20114;-62
2023/07/06 02:06:01;;;;;;;2.80;1.07;;;;;;;;;;4929589;29;20027;-63
2023/07/06 02:08:28;;;;;;;5.40;1.40;;;;;;;;;;4929584;29;20113;-62
2023/07/06 02:10:55;;;;;;;2.03;1.50;;;;;;;;;;4929865;29;20023;-62
2023/07/06 02:13:22;;;;;;;2.13;1.50;;;;;;;;;;4929838;29;20024;-62
2023/07/06 02:15:49;;;;;;;1.10;1.00;;;;;;;;;;4934929;29;20067;-62
2023/07/06 02:18:18;;;;;;;18.03;1.93;;;;;;;;;;4934526;29;20079;-62
2023/07/06 02:20:47;;;;;;;1.43;1.10;;;;;;;;;;4934659;29;20042;-63
2023/07/06 02:23:14;;;;;;;1.60;1.23;;;;;;;;;;4934856;29;20032;-62
2023/07/06 02:25:42;;;;;;;3.03;1.77;;;;;;;;;;4934591;29;20488;-62
2023/07/06 02:28:10;;;;;;;2.10;1.40;;;;;;;;;;4929246;29;20043;-62
2023/07/06 02:30:37;;;;;;;2.07;1.30;;;;;;;;;;4921511;29;20472;-62
2023/07/06 02:33:04;;;;;;;1.27;1.00;;;;;;;;;;4910620;29;20032;-63
2023/07/06 02:35:32;;;;;;;0.77;0.67;;;;;;;;;;4910455;29;20024;-62
2023/07/06 02:37:59;;;;;;;2.03;1.30;;;;;;;;;;4928462;29;20039;-62
2023/07/06 02:40:26;;;;;;;1.70;1.30;;;;;;;;;;4934796;29;20383;-62
2023/07/06 02:42:52;;;;;;;1.67;1.20;;;;;;;;;;4934706;29;20440;-62
2023/07/06 02:45:19;;;;;;;3.40;1.03;;;;;;;;;;4934862;29;20411;-63
2023/07/06 02:47:46;;;;;;;1.37;0.97;;;;;;;;;;4934005;29;20562;-62
2023/07/06 02:50:14;;;;;;;2.23;1.03;;;;;;;;;;4931719;29;20030;-62
2023/07/06 02:52:44;;;;;;;0.97;0.80;;;;;;;;;;4933229;29;20051;-63
2023/07/06 02:55:11;;;;;;;8.60;1.10;;;;;;;;;;4933509;29;20034;-62
2023/07/06 02:57:39;;;;;;;1.57;1.17;;;;;;;;;;4933351;29;20407;-62
2023/07/06 03:00:11;;;;;;;0.80;0.70;;;;;;;;;;4937828;29;20487;-62
2023/07/06 03:02:38;;;;;;;1.97;1.27;;;;;;;;;;4938465;29;20103;-62
2023/07/06 03:05:05;;;;;;;1.40;1.03;;;;;;;;;;4938340;29;20024;-63
2023/07/06 03:07:35;;;;;;;1.23;0.90;;;;;;;;;;4900385;29;20029;-62
2023/07/06 03:10:02;;;;;;;2.30;1.17;;;;;;;;;;4900394;29;20104;-62
2023/07/06 03:12:39;;;;;;;3.47;1.10;;;;;;;;;;4895028;29;20033;-63
2023/07/06 03:15:06;;;;;;;1.10;0.90;;;;;;;;;;4894948;29;20111;-64
2023/07/06 03:17:33;;;;;;;3.60;1.30;;;;;;;;;;4932601;29;20067;-62
2023/07/06 03:20:00;;;;;;;1.40;1.00;;;;;;;;;;4932773;29;20440;-64
2023/07/06 03:22:27;;;;;;;1.30;0.90;;;;;;;;;;4937333;29;20587;-63
2023/07/06 03:24:54;;;;;;;2.47;1.30;;;;;;;;;;4937783;29;20039;-62
2023/07/06 03:27:20;;;;;;;2.10;1.47;;;;;;;;;;4937551;29;20043;-62
2023/07/06 03:29:47;;;;;;;0.97;0.80;;;;;;;;;;4936267;29;20042;-63
2023/07/06 03:32:14;;;;;;;1.53;1.07;;;;;;;;;;4937752;29;20491;-62
2023/07/06 03:34:41;;;;;;;1.10;0.87;;;;;;;;;;4932618;29;20027;-62
2023/07/06 03:37:08;;;;;;;1.07;0.80;;;;;;;;;;4932487;29;20103;-62
2023/07/06 03:39:36;;;;;;;2.37;1.20;;;;;;;;;;4931942;29;20031;-63
2023/07/06 03:42:03;;;;;;;1.73;0.93;;;;;;;;;;4930989;29;20036;-62
2023/07/06 03:44:29;;;;;;;0.97;0.83;;;;;;;;;;4936362;29;20489;-62
2023/07/06 03:46:58;;;;;;;1.33;0.97;;;;;;;;;;4937646;29;20024;-62
2023/07/06 03:49:25;;;;;;;1.17;0.80;;;;;;;;;;4937317;29;20086;-62
2023/07/06 03:51:51;;;;;;;0.67;0.63;;;;;;;;;;4937177;29;20115;-62
2023/07/06 03:54:18;;;;;;;0.60;0.60;;;;;;;;;;4937521;29;20499;-62
2023/07/06 03:56:45;;;;;;;1.27;0.80;;;;;;;;;;4932234;29;20023;-62
2023/07/06 03:59:12;;;;;;;1.53;0.87;;;;;;;;;;4931970;29;20042;-62
2023/07/06 04:01:39;;;;;;;2.03;1.10;;;;;;;;;;4930720;29;20035;-63
2023/07/06 04:04:06;;;;;;;1.37;1.00;;;;;;;;;;4932068;29;20353;-62
2023/07/06 04:06:41;;;;;;;1.57;1.00;;;;;;;;;;4935893;29;20423;-62
2023/07/06 04:09:08;;;;;;;;;;;;;;;;;;4937382;29;20036;-62
2023/07/06 04:11:35;;;;;;;2.03;1.27;;;;;;;;;;4936498;29;19918;-63
2023/07/06 04:14:03;;;;;;;2.07;1.40;;;;;;;;;;4936915;29;20091;-62
2023/07/06 04:16:30;;;;;;;0.83;0.60;;;;;;;;;;4916631;29;20067;-62
2023/07/06 04:18:56;;;;;;;3.57;1.07;;;;;;;;;;4932684;29;20031;-62
2023/07/06 04:21:23;;;;;;;1.73;1.03;;;;;;;;;;4931701;29;20082;-62
2023/07/06 04:23:50;;;;;;;3.57;1.17;;;;;;;;;;4931626;29;20106;-62
2023/07/06 04:26:18;;;;;;;0.87;0.77;;;;;;;;;;4931077;29;20039;-62
2023/07/06 04:28:45;;;;;;;0.67;0.67;;;;;;;;;;4934294;29;20039;-63
2023/07/06 04:31:14;;;;;;;2.10;1.10;;;;;;;;;;4930236;29;20039;-62
2023/07/06 04:33:41;;;;;;;0.57;0.53;;;;;;;;;;4934789;29;20106;-62
2023/07/06 04:36:09;;;;;;;0.93;0.60;;;;;;;;;;4936017;29;20036;-62
2023/07/06 04:38:36;;;;;;;1.53;1.20;;;;;;;;;;4934520;29;20028;-62
2023/07/06 04:41:04;;;;;;;0.80;0.70;;;;;;;;;;4930838;29;20548;-62
2023/07/06 04:43:31;;;;;;;1.93;1.17;;;;;;;;;;4929524;29;20043;-62
2023/07/06 04:45:58;;;;;;;1.17;0.80;;;;;;;;;;4929093;29;20042;-62
2023/07/06 04:48:26;;;;;;;0.93;0.80;;;;;;;;;;4929573;29;20031;-62
2023/07/06 04:50:53;;;;;;;1.37;1.00;;;;;;;;;;4931820;29;20391;-62
2023/07/06 04:53:21;;;;;;;4.50;1.40;;;;;;;;;;4936101;29;20038;-62
2023/07/06 04:55:48;;;;;;;0.83;0.80;;;;;;;;;;4936262;29;20127;-62
2023/07/06 04:58:15;;;;;;;2.43;1.07;;;;;;;;;;4936215;29;20031;-61
2023/07/06 05:00:45;;;;;;;1.70;1.07;;;;;;;;;;4935452;29;20038;-61
2023/07/06 05:03:12;;;;;;;1.60;0.93;;;;;;;;;;4931573;29;20099;-62
2023/07/06 05:05:40;;;;;;;1.53;0.87;;;;;;;;;;4930728;29;20387;-62
2023/07/06 05:08:08;;;;;;;0.47;0.37;;;;;;;;;;4930409;29;20024;-61
2023/07/06 05:10:35;;;;;;;1.20;0.70;;;;;;;;;;4930403;29;20035;-62
2023/07/06 05:13:02;;;;;;;2.77;0.80;;;;;;;;;;4933293;29;20059;-62
2023/07/06 05:15:29;;;;;;;0.80;0.60;;;;;;;;;;4935669;29;20431;-63
2023/07/06 05:17:56;;;;;;;0.50;0.50;;;;;;;;;;4935695;29;20027;-62
2023/07/06 05:20:24;;;;;;;0.93;0.70;;;;;;;;;;4935741;29;20020;-62
2023/07/06 05:22:52;;;;;;;0.97;0.63;;;;;;;;;;4935807;29;20016;-61
2023/07/06 05:25:20;;;;;;;0.53;0.30;;;;;;;;;;4932231;29;20436;-61
2023/07/06 05:27:48;;;;;;;1.57;1.00;;;;;;;;;;4930327;29;20032;-61
2023/07/06 05:30:15;;;;;;;0.83;0.50;;;;;;;;;;4925611;29;20071;-60
2023/07/06 05:32:42;;;;;;;0.87;0.60;;;;;;;;;;4930108;29;20036;-59
2023/07/06 05:35:09;;;;;;;1.63;0.60;;;;;;;;;;4932797;29;20020;-59
2023/07/06 05:37:36;;;;;;;1.33;0.87;;;;;;;;;;4935396;29;20027;-59
2023/07/06 05:40:06;;;;;;;1.33;0.77;;;;;;;;;;4935427;29;20106;-59
2023/07/06 05:42:33;;;;;;;1.17;0.73;;;;;;;;;;4934707;29;20118;-59
2023/07/06 05:45:00;;;;;;;0.73;0.53;;;;;;;;;;4935508;29;20038;-59
2023/07/06 05:47:27;;;;;;;1.30;0.57;;;;;;;;;;4932360;29;20091;-59
2023/07/06 05:49:54;;;;;;;0.40;0.30;;;;;;;;;;4929975;29;20439;-60
2023/07/06 05:52:21;;;;;;;1.37;0.57;;;;;;;;;;4929931;29;20059;-60
2023/07/06 05:54:47;;;;;;;0.57;0.50;;;;;;;;;;4930258;29;20099;-59
2023/07/06 05:57:17;;;;;;;0.73;0.50;;;;;;;;;;4932263;29;20035;-59
2023/07/06 05:59:45;;;;;;;0.67;0.40;;;;;;;;;;4934278;29;20040;-59
2023/07/06 06:02:12;;;;;;;3.70;0.83;;;;;;;;;;4935393;29;20029;-59
2023/07/06 06:04:40;;;;;;;1.10;0.83;;;;;;;;;;4934595;29;20031;-59
2023/07/06 06:07:07;;;;;;;1.30;0.90;;;;;;;;;;4935152;29;20047;-60
2023/07/06 06:09:34;;;;;;;2.03;1.37;;;;;;;;;;4932622;29;20040;-60
2023/07/06 06:12:01;;;;;;;1.67;1.10;;;;;;;;;;4929837;29;20035;-60
2023/07/06 06:14:28;;;;;;;0.73;0.63;;;;;;;;;;4929549;29;20035;-59
2023/07/06 06:16:56;;;;;;;1.53;1.17;;;;;;;;;;4929553;29;20028;-60
2023/07/06 06:19:23;;;;;;;1.07;0.87;;;;;;;;;;4931257;29;20035;-59
2023/07/06 06:21:50;;;;;;;1.40;1.10;;;;;;;;;;4934391;29;20175;-60
2023/07/06 06:24:17;;;;;;;1.33;0.90;;;;;;;;;;4933891;29;20071;-60
2023/07/06 06:26:44;;;;;;;1.63;1.07;;;;;;;;;;4935043;29;20047;-59
2023/07/06 06:29:11;;;;;;;1.17;0.93;;;;;;;;;;4934846;29;20031;-60
2023/07/06 06:31:43;;;;;;;1.57;1.13;;;;;;;;;;4933295;29;20079;-60
2023/07/06 06:34:11;;;;;;;1.40;1.00;;;;;;;;;;4929108;29;20095;-62
2023/07/06 06:36:37;;;;;;;1.33;1.00;;;;;;;;;;4929218;29;20050;-63
2023/07/06 06:39:04;;;;;;;0.73;0.70;;;;;;;;;;4929764;29;20046;-62
2023/07/06 06:41:31;;;;;;;2.23;1.23;;;;;;;;;;4930383;29;20432;-62
2023/07/06 06:43:58;;;;;;;1.87;1.20;;;;;;;;;;4934413;29;20375;-62
2023/07/06 06:46:25;;;;;;;14.97;1.03;;;;;;;;;;4934617;29;20016;-62
2023/07/06 06:48:52;;;;;;;2.00;1.00;;;;;;;;;;4934614;29;20118;-62
2023/07/06 06:51:18;;;;;;;1.20;1.00;;;;;;;;;;4934716;29;20518;-62
2023/07/06 06:53:46;;;;;;;0.40;0.40;;;;;;;;;;4932756;29;20032;-63
2023/07/06 06:56:13;;;;;;;1.97;1.20;;;;;;;;;;4929398;29;20032;-62
2023/07/06 06:58:41;;;;;;;2.33;1.20;;;;;;;;;;4929354;29;20063;-62
2023/07/06 07:01:08;;;;;;;0.60;0.60;;;;;;;;;;4929683;29;20024;-62
2023/07/06 07:03:35;;;;;;;3.80;1.30;;;;;;;;;;4929664;29;20042;-62
2023/07/06 07:06:03;;;;;;;2.87;1.00;;;;;;;;;;4934354;29;20063;-62
2023/07/06 07:08:30;;;;;;;1.30;1.00;;;;;;;;;;4934406;29;20024;-62
2023/07/06 07:10:57;;;;;;;1.93;1.27;;;;;;;;;;4934213;29;20043;-62
2023/07/06 07:13:27;;;;;;;1.30;0.90;;;;;;;;;;4934695;29;20039;-62
2023/07/06 07:15:55;;;;;;;3.37;1.57;;;;;;;;;;4934076;29;20075;-62
2023/07/06 07:18:23;;;;;;;2.00;1.43;;;;;;;;;;4929017;29;20031;-62
2023/07/06 07:20:51;;;;;;;0.90;0.77;;;;;;;;;;4929359;29;20379;-62
2023/07/06 07:23:20;;;;;;;0.57;0.57;;;;;;;;;;4928951;29;20757;-63
2023/07/06 07:25:48;;;;;;;1.00;0.77;;;;;;;;;;4929138;29;20083;-63
2023/07/06 07:28:18;;;;;;;0.97;0.87;;;;;;;;;;4934616;29;20094;-63
2023/07/06 07:30:56;;;;;;;1.40;1.07;;;;;;;;;;4934201;29;20028;-62
2023/07/06 07:33:23;;;;;;;3.27;1.20;;;;;;;;;;4933774;29;20058;-62
2023/07/06 07:35:53;;;;;;;0.87;0.73;;;;;;;;;;4934600;29;20383;-62
2023/07/06 07:38:20;;;;;;;1.97;1.20;;;;;;;;;;4937099;29;20016;-61
2023/07/06 07:40:57;;;;;;;2.60;1.73;;;;;;;;;;4931939;29;20039;-60
2023/07/06 07:43:27;;;;;;;2.00;1.47;;;;;;;;;;4932292;29;20050;-61
2023/07/06 07:45:55;;;;;;;2.40;1.80;;;;;;;;;;4932529;29;20035;-60
2023/07/06 07:48:25;;;;;;;2.83;1.57;;;;;;;;;;4932165;29;20118;-60
2023/07/06 07:50:53;;;;;;;2.43;1.63;;;;;;;;;;4937520;29;20030;-61
2023/07/06 07:53:32;;;;;;;7.03;3.00;;;;;;;;;;4937584;29;20027;-60
2023/07/06 07:55:59;;;;;;;2.33;1.77;;;;;;;;;;4937286;29;20035;-60
2023/07/06 07:58:26;;;;;;;2.23;1.37;;;;;;;;;;4936600;29;20067;-60
2023/07/06 08:00:57;;;;;;;4.70;2.30;;;;;;;;;;4936030;29;20502;-60
2023/07/06 08:03:25;;;;;;;3.33;2.33;;;;;;;;;;4931563;29;20016;-60
2023/07/06 08:05:55;;;;;;;2.73;2.00;;;;;;;;;;4931825;29;20487;-61
2023/07/06 08:08:23;;;;;;;3.33;2.40;;;;;;;;;;4931456;29;20506;-60
2023/07/06 08:10:50;;;;;;;2.97;2.50;;;;;;;;;;4932496;29;20030;-60
2023/07/06 08:13:17;;;;;;;2.03;1.80;;;;;;;;;;4937111;29;20511;-59
2023/07/06 08:15:44;;;;;;;3.00;2.43;;;;;;;;;;4936931;29;20020;-60
2023/07/06 08:18:11;;;;;;;6.10;2.90;;;;;;;;;;4936675;29;20047;-60
2023/07/06 08:20:38;;;;;;;4.43;2.90;;;;;;;;;;4936828;29;20391;-60
2023/07/06 08:23:06;;;;;;;4.00;2.57;;;;;;;;;;4936172;29;20020;-60
2023/07/06 08:25:37;;;;;;;4.47;2.97;;;;;;;;;;4931565;29;20106;-60
2023/07/06 08:28:05;;;;;;;3.30;2.37;;;;;;;;;;4931591;29;20464;-60
2023/07/06 08:30:36;;;;;;;3.53;2.63;;;;;;;;;;4931297;29;20036;-60
2023/07/06 08:33:04;;;;;;;2.90;2.53;;;;;;;;;;4931261;29;20032;-60
2023/07/06 08:35:31;;;;;;;3.83;2.87;;;;;;;;;;4936631;29;20107;-59
2023/07/06 08:38:03;;;;;;;3.30;2.67;;;;;;;;;;4936673;29;20040;-60
2023/07/06 08:40:30;;;;;;;2.77;2.13;;;;;;;;;;4936487;29;20481;-60
2023/07/06 08:42:57;;;;;;;2.40;2.00;;;;;;;;;;4936526;29;20036;-60
2023/07/06 08:45:27;;;;;;;3.40;2.57;;;;;;;;;;4935642;29;20024;-60
2023/07/06 08:47:56;;;;;;;3.37;2.87;;;;;;;;;;4930471;29;21446;-61
2023/07/06 08:50:28;;;;;;;3.50;2.77;;;;;;;;;;4930663;29;20064;-59
2023/07/06 08:52:56;;;;;;;4.03;2.80;;;;;;;;;;4931069;29;20386;-60
2023/07/06 08:55:24;;;;;;;3.17;2.43;;;;;;;;;;4931462;29;20028;-60
2023/07/06 08:57:52;;;;;;;4.93;1.97;;;;;;;;;;4936222;29;20114;-60
2023/07/06 09:00:25;;;;;;;4.17;2.90;;;;;;;;;;4935811;29;20024;-60
2023/07/06 09:03:18;;;;;;;3.60;2.83;;;;;;;;;;4936355;29;20103;-59
2023/07/06 09:05:46;;;;;;;2.90;2.13;;;;;;;;;;4933510;29;20047;-60
2023/07/06 09:08:17;;;;;;;3.07;2.43;;;;;;;;;;4933853;29;20487;-60
2023/07/06 09:10:43;;;;;;;13.07;2.57;;;;;;;;;;4929603;29;20035;-60
2023/07/06 09:13:15;;;;;;;4.13;3.03;;;;;;;;;;4930589;29;20035;-61
2023/07/06 09:15:44;;;;;;;3.07;2.53;;;;;;;;;;4930689;29;20086;-60
2023/07/06 09:18:14;;;;;;;6.23;3.37;;;;;;;;;;4932343;29;20487;-60
2023/07/06 09:20:41;;;;;;;4.30;2.80;;;;;;;;;;4935686;29;20031;-61
2023/07/06 09:23:13;;;;;;;5.23;2.30;;;;;;;;;;4935649;29;20432;-60
2023/07/06 09:25:42;;;;;;;5.00;3.13;;;;;;;;;;4935942;29;20471;-60
2023/07/06 09:28:15;;;;;;;3.30;2.33;;;;;;;;;;4935640;29;20498;-60
2023/07/06 09:30:43;;;;;;;5.03;3.20;;;;;;;;;;4933069;29;20031;-60
2023/07/06 09:33:18;;;;;;;5.37;3.67;;;;;;;;;;4930289;29;20028;-60
2023/07/06 09:35:45;;;;;;;3.37;2.33;;;;;;;;;;4930002;29;20039;-60
2023/07/06 09:38:15;;;;;;;3.17;2.60;;;;;;;;;;4930450;29;20024;-60
2023/07/06 09:40:43;;;;;;;5.33;3.43;;;;;;;;;;4932352;29;20551;-60
2023/07/06 09:43:27;;;;;;;6.60;3.17;;;;;;;;;;4935442;29;20080;-61
2023/07/06 09:45:55;;;;;;;3.33;2.60;;;;;;;;;;4935046;29;20027;-60
2023/07/06 09:48:41;;;;;;;4.13;2.87;;;;;;;;;;4935220;29;20114;-60
2023/07/06 09:51:14;;;;;;;2.40;1.87;;;;;;;;;;4935243;29;20027;-61
2023/07/06 09:53:48;;;;;;;7.83;2.97;;;;;;;;;;4931345;29;20032;-60
2023/07/06 09:56:15;;;;;;;7.73;3.30;;;;;;;;;;4929374;29;20434;-60
2023/07/06 09:58:45;;;;;;;3.50;2.53;;;;;;;;;;4928929;29;20031;-60
2023/07/06 10:01:15;;;;;;;7.17;2.93;;;;;;;;;;4929427;29;20155;-61
2023/07/06 10:03:41;;;;;;;2.63;2.10;;;;;;;;;;4933698;29;20083;-60
2023/07/06 10:06:11;;;;;;;4.30;2.73;;;;;;;;;;4935051;29;20032;-60
2023/07/06 10:08:44;;;;;;;3.20;2.40;;;;;;;;;;4935173;29;20036;-60
2023/07/06 10:11:25;;;;;;;4.23;2.77;;;;;;;;;;4934759;29;20027;-60
2023/07/06 10:14:00;;;;;;;3.33;2.57;;;;;;;;;;4935110;29;20076;-60
2023/07/06 10:16:28;;;;;;;;;;;;;;;;;;4930202;29;20031;-60
2023/07/06 10:19:06;;;;;;;5.17;4.00;;;;;;;;;;4929638;29;19929;-60
2023/07/06 10:21:55;;;;;;;4.30;2.83;;;;;;;;;;4929923;29;20028;-61
2023/07/06 10:24:36;;;;;;;3.43;2.87;;;;;;;;;;4929420;29;20038;-60
2023/07/06 10:27:05;;;;;;;4.10;3.00;;;;;;;;;;4934555;29;20026;-61
2023/07/06 10:29:41;;;;;;;4.37;2.70;;;;;;;;;;4934917;29;20035;-60
2023/07/06 10:32:30;;;;;;;4.30;2.87;;;;;;;;;;4934845;29;20020;-60
2023/07/06 10:34:58;;;;;;;5.77;2.77;;;;;;;;;;4934421;29;20028;-60
2023/07/06 10:37:27;;;;;;;5.47;2.93;;;;;;;;;;4932382;29;20032;-61
2023/07/06 10:40:00;;;;;;;4.17;3.20;;;;;;;;;;4929554;29;20556;-60
2023/07/06 10:42:28;;;;;;;4.20;2.77;;;;;;;;;;4929318;29;20032;-60
2023/07/06 10:44:58;;;;;;;4.67;3.07;;;;;;;;;;4929286;29;20023;-60
2023/07/06 10:47:32;;;;;;;2.87;2.27;;;;;;;;;;4931497;29;20393;-60
2023/07/06 10:50:19;;;;;;;3.13;2.50;;;;;;;;;;4934520;29;20118;-60
2023/07/06 10:52:57;;;;;;;2.90;2.10;;;;;;;;;;4934558;29;20104;-60
2023/07/06 10:55:24;;;;;;;9.83;2.70;;;;;;;;;;4934671;29;20053;-60
2023/07/06 10:57:52;;;;;;;6.77;3.37;;;;;;;;;;4934066;29;20435;-60
2023/07/06 11:00:20;;;;;;;2.97;2.03;;;;;;;;;;4931673;29;20024;-60
2023/07/06 11:02:47;;;;;;;3.50;2.43;;;;;;;;;;4929395;29;20023;-60
2023/07/06 11:05:29;;;;;;;4.37;2.93;;;;;;;;;;4929420;29;20102;-60
2023/07/06 11:07:57;;;;;;;4.00;3.23;;;;;;;;;;4929232;29;20038;-60
2023/07/06 11:10:39;;;;;;;4.17;2.97;;;;;;;;;;4932122;29;20083;-60
2023/07/06 11:13:06;;;;;;;2.90;2.43;;;;;;;;;;4936953;29;20051;-60
2023/07/06 11:15:56;;;;;;;2.23;1.93;;;;;;;;;;4937106;29;20023;-60
2023/07/06 11:18:22;;;;;;;2.30;1.50;;;;;;;;;;4937565;29;20139;-60
2023/07/06 11:20:55;;;;;;;4.40;2.37;;;;;;;;;;4938028;29;20028;-60
2023/07/06 11:23:35;;;;;;;3.07;2.20;;;;;;;;;;4932861;29;20055;-60
2023/07/06 11:26:07;;;;;;;3.97;3.03;;;;;;;;;;4932539;29;20391;-60
2023/07/06 11:28:34;;;;;;;4.07;3.13;;;;;;;;;;4932449;29;20119;-60
2023/07/06 11:31:12;;;;;;;3.60;2.80;;;;;;;;;;4932356;29;20025;-59
2023/07/06 11:33:52;;;;;;;18.63;3.60;;;;;;;;;;4937968;29;20051;-60
2023/07/06 11:36:23;;;;;;;4.67;2.83;;;;;;;;;;4937719;29;20416;-60
2023/07/06 11:39:05;;;;;;;3.50;2.37;;;;;;;;;;4936980;29;20480;-60
2023/07/06 11:41:45;;;;;;;1.87;1.37;;;;;;;;;;4937558;29;20357;-60
2023/07/06 11:44:28;;;;;;;6.10;3.27;;;;;;;;;;4935901;29;20118;-60
2023/07/06 11:47:15;;;;;;;2.33;1.93;;;;;;;;;;4931957;29;20028;-60
2023/07/06 11:49:50;;;;;;;2.73;2.00;;;;;;;;;;4931782;29;20102;-60
2023/07/06 11:52:36;;;;;;;7.17;2.30;;;;;;;;;;4932232;29;20027;-59
2023/07/06 11:55:18;;;;;;;5.53;3.17;;;;;;;;;;4935486;29;20023;-59
2023/07/06 11:58:05;;;;;;;3.63;3.27;;;;;;;;;;4937047;29;20487;-60
2023/07/06 12:00:48;;;;;;;5.87;3.13;;;;;;;;;;4936951;29;20387;-60
2023/07/06 12:03:15;;;;;;;4.67;3.33;;;;;;;;;;4937040;29;20028;-59
2023/07/06 12:05:44;;;;;;;5.63;3.30;;;;;;;;;;4937097;29;20024;-59
2023/07/06 12:08:16;;;;;;;3.70;2.60;;;;;;;;;;4931765;29;20125;-59
2023/07/06 12:10:48;;;;;;;15.03;2.93;;;;;;;;;;4931782;29;20035;-59
2023/07/06 12:13:28;;;;;;;2.80;2.10;;;;;;;;;;4931830;29;20028;-60
2023/07/06 12:16:15;;;;;;;3.13;2.03;;;;;;;;;;4931478;29;20023;-59
2023/07/06 12:18:44;;;;;;;2.30;1.90;;;;;;;;;;4936611;29;20110;-61
2023/07/06 12:21:29;;;;;;;4.30;2.40;;;;;;;;;;4936909;29;20028;-60
2023/07/06 12:24:02;;;;;;;2.70;1.90;;;;;;;;;;4936788;29;20031;-60
2023/07/06 12:26:30;;;;;;;2.67;1.73;;;;;;;;;;4936711;29;20023;-60
2023/07/06 12:29:03;;;;;;;2.63;1.83;;;;;;;;;;4934436;29;20036;-60
2023/07/06 12:31:29;;;;;;;2.33;1.87;;;;;;;;;;4931219;29;20031;-60
2023/07/06 12:34:00;;;;;;;2.80;1.80;;;;;;;;;;4931557;29;20497;-60
2023/07/06 12:36:28;;;;;;;4.30;2.10;;;;;;;;;;4931352;29;20020;-60
2023/07/06 12:38:55;;;;;;;2.50;1.57;;;;;;;;;;4932949;29;20106;-60
2023/07/06 12:41:23;;;;;;;1.80;1.50;;;;;;;;;;4936724;29;20110;-60
2023/07/06 12:43:51;;;;;;;1.73;1.47;;;;;;;;;;4935861;29;20034;-60
2023/07/06 12:46:22;;;;;;;3.30;2.37;;;;;;;;;;4936427;29;20087;-60
2023/07/06 12:48:53;;;;;;;2.50;1.97;;;;;;;;;;4936458;29;20056;-60
2023/07/06 12:51:24;;;;;;;2.37;1.70;;;;;;;;;;4933965;29;20467;-60
2023/07/06 12:53:52;;;;;;;2.07;1.67;;;;;;;;;;4930992;29;20036;-60
2023/07/06 12:56:20;;;;;;;3.17;1.97;;;;;;;;;;4930944;29;20142;-60
2023/07/06 12:58:48;;;;;;;2.97;1.70;;;;;;;;;;4931046;29;20074;-59
2023/07/06 13:01:19;;;;;;;3.07;1.90;;;;;;;;;;4932850;29;20028;-60
2023/07/06 13:03:46;;;;;;;2.97;2.43;;;;;;;;;;4936305;29;20028;-59
2023/07/06 13:06:13;;;;;;;6.37;2.30;;;;;;;;;;4935474;29;20063;-59
2023/07/06 13:08:40;;;;;;;3.83;1.93;;;;;;;;;;4936103;29;20083;-60
2023/07/06 13:11:07;;;;;;;4.60;2.47;;;;;;;;;;4936006;29;20030;-60
2023/07/06 13:13:36;;;;;;;2.73;2.33;;;;;;;;;;4933610;29;20019;-59
2023/07/06 13:16:07;;;;;;;2.33;1.93;;;;;;;;;;4930380;29;20044;-59
2023/07/06 13:18:37;;;;;;;3.83;2.80;;;;;;;;;;4930885;29;20175;-60
2023/07/06 13:21:06;;;;;;;6.27;2.77;;;;;;;;;;4930676;29;20391;-60
2023/07/06 13:23:33;;;;;;;2.80;1.90;;;;;;;;;;4932391;29;20035;-59
2023/07/06 13:26:00;;;;;;;3.00;2.50;;;;;;;;;;4935378;29;20479;-60
2023/07/06 13:28:27;;;;;;;8.40;3.30;;;;;;;;;;4935108;29;20027;-60
2023/07/06 13:30:54;;;;;;;5.67;2.80;;;;;;;;;;4935523;29;20027;-60
2023/07/06 13:33:21;;;;;;;3.80;3.20;;;;;;;;;;4935604;29;20052;-60
2023/07/06 13:35:47;;;;;;;5.30;3.50;;;;;;;;;;4933516;29;20095;-60
2023/07/06 13:38:15;;;;;;;5.83;3.80;;;;;;;;;;4930230;29;20435;-60
2023/07/06 13:40:43;;;;;;;10.33;2.90;;;;;;;;;;4930253;29;20048;-60
2023/07/06 13:43:13;;;;;;;2.90;2.43;;;;;;;;;;4930221;29;20365;-60
2023/07/06 13:45:40;;;;;;;3.70;2.80;;;;;;;;;;4931779;29;20390;-60
2023/07/06 13:48:08;;;;;;;5.30;3.93;;;;;;;;;;4935816;29;20042;-60
2023/07/06 13:50:36;;;;;;;3.73;2.73;;;;;;;;;;4935126;29;20048;-60
2023/07/06 13:53:03;;;;;;;3.43;2.47;;;;;;;;;;4935396;29;20035;-60
2023/07/06 13:55:37;;;;;;;3.83;3.03;;;;;;;;;;4935427;29;20063;-59
2023/07/06 13:58:06;;;;;;;4.10;2.45;;;;;;;;;;4932884;29;20472;-60
2023/07/06 14:00:33;;;;;;;7.03;3.40;;;;;;;;;;4930080;29;20043;-60
2023/07/06 14:03:00;;;;;;;16.50;2.67;;;;;;;;;;4929427;29;20199;-59
2023/07/06 14:05:27;;;;;;;3.70;2.53;;;;;;;;;;4930356;29;20031;-60
2023/07/06 14:07:53;;;;;;;6.93;2.73;;;;;;;;;;4931533;29;20032;-60
2023/07/06 14:10:20;;;;;;;3.13;2.13;;;;;;;;;;4934906;29;20044;-60
2023/07/06 14:12:48;;;;;;;1.67;1.47;;;;;;;;;;4934761;29;20543;-60
2023/07/06 14:15:15;;;;;;;3.97;2.50;;;;;;;;;;4935138;29;20027;-60
2023/07/06 14:17:44;;;;;;;2.53;1.63;;;;;;;;;;4934851;29;20063;-60
2023/07/06 14:20:11;;;;;;;2.40;1.47;;;;;;;;;;4933243;29;20063;-60
2023/07/06 14:22:38;;;;;;;3.00;1.87;;;;;;;;;;4929941;29;20028;-60
2023/07/06 14:25:14;;;;;;;3.03;2.07;;;;;;;;;;4929879;29;20434;-60
2023/07/06 14:27:41;;;;;;;3.40;1.97;;;;;;;;;;4929447;29;20034;-60
2023/07/06 14:30:08;;;;;;;2.23;1.80;;;;;;;;;;4931333;29;20107;-60
2023/07/06 14:32:35;;;;;;;3.50;2.37;;;;;;;;;;4934564;29;20037;-60
2023/07/06 14:35:02;;;;;;;3.10;2.37;;;;;;;;;;4935019;29;20024;-60
2023/07/06 14:37:28;;;;;;;3.80;2.63;;;;;;;;;;4934920;29;20387;-60
2023/07/06 14:39:55;;;;;;;3.37;2.30;;;;;;;;;;4934981;29;20483;-60
2023/07/06 14:42:22;;;;;;;4.60;2.47;;;;;;;;;;4932581;29;20510;-60
2023/07/06 14:44:49;;;;;;;4.17;2.90;;;;;;;;;;4929515;29;20516;-60
2023/07/06 14:47:16;;;;;;;8.07;2.47;;;;;;;;;;4933700;29;20035;-60
2023/07/06 14:49:42;;;;;;;2.47;2.00;;;;;;;;;;4932117;29;20050;-60
2023/07/06 14:52:09;;;;;;;4.27;2.20;;;;;;;;;;4932634;29;20043;-60
2023/07/06 14:54:37;;;;;;;10.90;1.67;;;;;;;;;;4938244;29;20030;-60
2023/07/06 14:57:05;;;;;;;24.30;2.23;;;;;;;;;;4938282;29;20035;-60